Time;durP1;ratioP1;P1;durP2;ratioP2;P2;SDS_P1;SDS_P2;PMS_P1;PMS_P2;Temp;Humidity;BMP_temperature;BMP_pressure;BME280_temperature;BME280_humidity;BME280_pressure;Samples;Min_cycle;Max_cycle;Signal;HPM_P1;HPM_P2
2022/04/20 00:02:18;;;;;;;;;24.00;22.00;;;;;-147.47;100.00;64613.53;5015437;28;45651;-76
2022/04/20 00:04:55;;;;;;;;;22.33;22.00;;;;;-147.47;100.00;64613.53;5038267;28;45557;-82
2022/04/20 00:07:27;;;;;;;;;25.67;20.33;;;;;-147.47;100.00;64613.53;5021574;28;45821;-81
2022/04/20 00:10:15;;;;;;;;;22.00;20.00;;;;;-147.47;100.00;64613.53;5039728;28;46203;-81
2022/04/20 00:12:42;;;;;;;;;27.67;25.33;;;;;-147.47;100.00;64613.53;5038743;28;45474;-80
2022/04/20 00:15:21;;;;;;;;;25.33;23.00;;;;;-147.47;100.00;64613.53;5035725;28;45372;-76
2022/04/20 00:18:06;;;;;;;;;;;;;;;;;;;;;
2022/04/20 00:20:48;;;;;;;;;24.00;21.67;;;;;-147.47;100.00;64613.53;5033896;28;75402;-79
2022/04/20 00:23:25;;;;;;;;;25.67;21.00;;;;;-147.47;100.00;64613.53;5047567;28;45445;-80
2022/04/20 00:25:54;;;;;;;;;27.67;23.33;;;;;-147.47;100.00;64613.53;5039676;28;45410;-80
2022/04/20 00:28:31;;;;;;;;;28.33;25.00;;;;;-147.47;100.00;64613.53;5056649;28;45414;-81
2022/04/20 00:31:12;;;;;;;;;25.33;21.00;;;;;-147.47;100.00;64613.53;5019661;28;47854;-81
2022/04/20 00:33:39;;;;;;;;;26.00;25.00;;;;;-147.47;100.00;64613.53;5020523;28;46151;-82
2022/04/20 00:36:18;;;;;;;;;25.33;22.33;;;;;-147.47;100.00;64613.53;5018390;28;45834;-80
2022/04/20 00:38:47;;;;;;;;;29.33;25.33;;;;;-147.47;100.00;64613.53;5016165;28;45733;-74
2022/04/20 00:41:18;;;;;;;;;27.00;25.33;;;;;-147.47;100.00;64613.53;5067562;28;47908;-76
2022/04/20 00:47:12;;;;;;;;;25.33;23.33;;;;;-147.47;100.00;64613.53;5064780;28;45916;-81
2022/04/20 00:49:46;;;;;;;;;24.67;24.67;;;;;-147.47;100.00;64613.53;5044169;28;46102;-76
2022/04/20 00:52:24;;;;;;;;;25.33;24.33;;;;;-147.47;100.00;64613.53;5054399;28;45599;-75
2022/04/20 00:55:00;;;;;;;;;26.33;25.67;;;;;-147.47;100.00;64613.53;5054217;28;45847;-74
2022/04/20 00:57:30;;;;;;;;;30.00;26.33;;;;;-147.47;100.00;64613.53;5052887;28;44882;-77
2022/04/20 01:00:29;;;;;;;;;30.33;26.33;;;;;-147.47;100.00;64613.53;5054035;28;45979;-77
2022/04/20 01:03:04;;;;;;;;;31.67;29.33;;;;;-147.47;100.00;64613.53;5055056;28;46722;-77
2022/04/20 01:06:07;;;;;;;;;30.67;26.33;;;;;-147.47;100.00;64613.53;5056857;28;45783;-82
2022/04/20 01:08:33;;;;;;;;;27.33;24.33;;;;;-147.47;100.00;64613.53;5037540;28;45533;-79
2022/04/20 01:10:59;;;;;;;;;26.67;23.33;;;;;-147.47;100.00;64613.53;5054886;28;45410;-79
2022/04/20 01:13:25;;;;;;;;;29.33;26.67;;;;;-147.47;100.00;64613.53;5053627;28;45952;-73
2022/04/20 01:15:54;;;;;;;;;29.33;26.33;;;;;-147.47;100.00;64613.53;5051015;28;45586;-73
2022/04/20 01:18:19;;;;;;;;;29.33;26.00;;;;;-147.47;100.00;64613.53;5043893;28;45495;-75
2022/04/20 01:20:58;;;;;;;;;36.00;30.00;;;;;-147.47;100.00;64613.53;5053983;28;45987;-75
2022/04/20 01:23:39;;;;;;;;;32.33;28.67;;;;;-147.47;100.00;64613.53;5035683;28;45609;-80
2022/04/20 01:26:15;;;;;;;;;39.00;28.00;;;;;-147.47;100.00;64613.53;5035665;28;45766;-75
2022/04/20 01:28:52;;;;;;;;;31.67;28.33;;;;;-147.47;100.00;64613.53;5034553;28;45717;-74
2022/04/20 01:31:27;;;;;;;;;40.33;32.33;;;;;-147.47;100.00;64613.53;5036471;28;45934;-79
2022/04/20 01:34:07;;;;;;;;;37.00;30.33;;;;;-147.47;100.00;64613.53;5037722;28;47466;-80
2022/04/20 01:36:36;;;;;;;;;38.00;30.00;;;;;-147.47;100.00;64613.53;5038502;28;45954;-81
2022/04/20 01:39:25;;;;;;;;;39.33;31.33;;;;;-147.47;100.00;64613.53;5037354;28;45388;-80
2022/04/20 01:42:01;;;;;;;;;40.67;32.33;;;;;-147.47;100.00;64613.53;5036486;28;45532;-79
2022/04/20 01:44:28;;;;;;;;;37.67;32.00;;;;;-147.47;100.00;64613.53;5034945;28;45472;-78
2022/04/20 01:47:00;;;;;;;;;40.67;31.67;;;;;-147.47;100.00;64613.53;5053256;28;45320;-79
2022/04/20 01:49:44;;;;;;;;;34.00;31.00;;;;;-147.47;100.00;64613.53;5021575;28;45429;-78
2022/04/20 01:52:10;;;;;;;;;40.00;32.00;;;;;-147.47;100.00;64613.53;5037643;28;45758;-80
2022/04/20 01:54:42;;;;;;;;;37.00;29.67;;;;;-147.47;100.00;64613.53;5057277;28;46334;-81
2022/04/20 01:57:14;;;;;;;;;40.33;33.00;;;;;-147.47;100.00;64613.53;5055874;28;45882;-79
2022/04/20 01:59:45;;;;;;;;;38.75;34.75;;;;;-147.47;100.00;64613.53;5038543;28;45477;-80
2022/04/20 02:05:29;;;;;;;;;38.33;34.00;;;;;-147.47;100.00;64613.53;5056312;28;45325;-79
2022/04/20 02:07:58;;;;;;;;;42.00;34.50;;;;;-147.47;100.00;64613.53;5033441;28;45375;-75
2022/04/20 02:10:34;;;;;;;;;45.25;36.00;;;;;-147.47;100.00;64613.53;5035346;28;45543;-79
2022/04/20 02:13:06;;;;;;;;;43.25;36.00;;;;;-147.47;100.00;64613.53;5056319;28;45500;-79
2022/04/20 02:15:40;;;;;;;;;34.00;30.00;;;;;-147.47;100.00;64613.53;5055196;28;45362;-80
2022/04/20 02:18:17;;;;;;;;;44.00;36.00;;;;;-147.47;100.00;64613.53;5055040;28;45504;-79
2022/04/20 02:20:52;;;;;;;;;39.25;33.50;;;;;-147.47;100.00;64613.53;5055962;28;45397;-80
2022/04/20 02:23:28;;;;;;;;;46.00;37.50;;;;;-147.47;100.00;64613.53;5037102;28;45733;-81
2022/04/20 02:25:58;;;;;;;;;46.50;36.25;;;;;-147.47;100.00;64613.53;5037559;28;45486;-79
2022/04/20 02:28:31;;;;;;;;;45.50;35.50;;;;;-147.47;100.00;64613.53;5036270;28;45455;-76
2022/04/20 02:31:20;;;;;;;;;;;;;;;;;;;;;
2022/04/20 02:33:48;;;;;;;;;39.75;33.50;;;;;-147.47;100.00;64613.53;5054576;28;74370;-80
2022/04/20 02:36:47;;;;;;;;;48.25;39.00;;;;;-147.47;100.00;64613.53;5036988;28;46319;-77
2022/04/20 02:39:40;;;;;;;;;48.50;37.75;;;;;-147.47;100.00;64613.53;5048053;28;45443;-76
2022/04/20 02:42:14;;;;;;;;;40.75;34.00;;;;;-147.47;100.00;64613.53;5033580;28;45898;-80
2022/04/20 02:44:56;;;;;;;;;49.00;39.75;;;;;-147.47;100.00;64613.53;5040298;28;45718;-80
2022/04/20 02:47:21;;;;;;;;;45.00;36.25;;;;;-147.47;100.00;64613.53;5070984;28;46172;-75
2022/04/20 02:49:47;;;;;;;;;47.50;38.00;;;;;-147.47;100.00;64613.53;5072025;28;45780;-78
2022/04/20 02:52:12;;;;;;;;;48.50;39.25;;;;;-147.47;100.00;64613.53;5073238;28;45708;-80
2022/04/20 02:54:37;;;;;;;;;47.25;39.25;;;;;-147.47;100.00;64613.53;5071955;28;45407;-76
2022/04/20 02:57:03;;;;;;;;;51.25;39.25;;;;;-147.47;100.00;64613.53;5072076;28;45753;-79
2022/04/20 02:59:29;;;;;;;;;44.75;37.50;;;;;-147.47;100.00;64613.53;5065962;28;45765;-75
2022/04/20 03:01:54;;;;;;;;;50.00;41.00;;;;;-147.47;100.00;64613.53;5070932;28;45406;-75
2022/04/20 03:04:19;;;;;;;;;47.75;39.00;;;;;-147.47;100.00;64613.53;5070471;28;45537;-76
2022/04/20 03:06:45;;;;;;;;;52.75;41.00;;;;;-147.47;100.00;64613.53;5069645;28;46753;-78
2022/04/20 03:09:10;;;;;;;;;48.00;39.25;;;;;-147.47;100.00;64613.53;5072703;28;45449;-79
2022/04/20 03:11:36;;;;;;;;;47.25;36.50;;;;;-147.47;100.00;64613.53;5053716;28;45464;-79
2022/04/20 03:14:01;;;;;;;;;49.50;39.00;;;;;-147.47;100.00;64613.53;5052537;28;45459;-79
2022/04/20 03:16:27;;;;;;;;;52.75;40.75;;;;;-147.47;100.00;64613.53;5052071;28;45811;-79
2022/04/20 03:18:52;;;;;;;;;52.50;40.00;;;;;-147.47;100.00;64613.53;5050824;28;45473;-74
2022/04/20 03:21:18;;;;;;;;;48.75;39.25;;;;;-147.47;100.00;64613.53;5050975;28;45789;-74
2022/04/20 03:23:43;;;;;;;;;49.50;40.00;;;;;-147.47;100.00;64613.53;5052457;28;45391;-78
2022/04/20 03:26:09;;;;;;;;;49.75;40.00;;;;;-147.47;100.00;64613.53;5052651;28;46745;-80
2022/04/20 03:28:34;;;;;;;;;52.75;40.75;;;;;-147.47;100.00;64613.53;5050695;28;45379;-74
2022/04/20 03:31:00;;;;;;;;;53.00;42.00;;;;;-147.47;100.00;64613.53;5050241;28;45403;-74
2022/04/20 03:33:26;;;;;;;;;51.50;40.50;;;;;-147.47;100.00;64613.53;5052046;28;45542;-79
2022/04/20 03:35:52;;;;;;;;;53.75;43.00;;;;;-147.47;100.00;64613.53;5051826;28;46436;-74
2022/04/20 03:38:18;;;;;;;;;53.50;43.25;;;;;-147.47;100.00;64613.53;5051519;28;46039;-79
2022/04/20 03:40:45;;;;;;;;;52.50;43.75;;;;;-147.47;100.00;64613.53;5051487;28;45624;-80
2022/04/20 03:43:10;;;;;;;;;52.00;42.75;;;;;-147.47;100.00;64613.53;5014454;28;45838;-80
2022/04/20 03:45:35;;;;;;;;;55.00;44.25;;;;;-147.47;100.00;64613.53;5015208;28;47321;-79
2022/04/20 03:48:01;;;;;;;;;53.75;42.25;;;;;-147.47;100.00;64613.53;5029926;28;45856;-74
2022/04/20 03:50:26;;;;;;;;;54.75;43.25;;;;;-147.47;100.00;64613.53;5017375;28;45418;-74
2022/04/20 03:52:52;;;;;;;;;55.25;43.25;;;;;-147.47;100.00;64613.53;5039165;28;45771;-75
2022/04/20 03:55:17;;;;;;;;;53.50;41.00;;;;;-147.47;100.00;64613.53;5031784;28;47425;-80
2022/04/20 03:57:43;;;;;;;;;57.25;44.75;;;;;-147.47;100.00;64613.53;5053622;28;45858;-79
2022/04/20 04:00:09;;;;;;;;;55.50;45.00;;;;;-147.47;100.00;64613.53;5054297;28;45719;-80
2022/04/20 04:02:34;;;;;;;;;61.75;45.25;;;;;-147.47;100.00;64613.53;5035290;28;45717;-73
2022/04/20 04:05:00;;;;;;;;;56.25;44.25;;;;;-147.47;100.00;64613.53;5017856;28;46291;-75
2022/04/20 04:07:25;;;;;;;;;56.75;44.25;;;;;-147.47;100.00;64613.53;5053874;28;45373;-80
2022/04/20 04:09:51;;;;;;;;;54.00;44.00;;;;;-147.47;100.00;64613.53;5035416;28;45715;-80
2022/04/20 04:12:22;;;;;;;;;57.00;43.75;;;;;-147.47;100.00;64613.53;5034144;28;45920;-80
2022/04/20 04:14:47;;;;;;;;;55.75;44.75;;;;;-147.47;100.00;64613.53;5034123;28;46485;-73
2022/04/20 04:17:13;;;;;;;;;51.00;41.00;;;;;-147.47;100.00;64613.53;5021738;28;45537;-74
2022/04/20 04:19:38;;;;;;;;;55.75;44.00;;;;;-147.47;100.00;64613.53;5042563;28;45815;-75
2022/04/20 04:22:05;;;;;;;;;60.50;45.75;;;;;-147.47;100.00;64613.53;5046480;28;45571;-81
2022/04/20 04:24:36;;;;;;;;;58.50;45.50;;;;;-147.47;100.00;64613.53;5048835;28;47990;-75
2022/04/20 04:27:03;;;;;;;;;58.25;45.25;;;;;-147.47;100.00;64613.53;5052197;28;45803;-74
2022/04/20 04:29:29;;;;;;;;;52.25;42.00;;;;;-147.47;100.00;64613.53;5033975;28;45779;-75
2022/04/20 04:31:55;;;;;;;;;59.00;46.50;;;;;-147.47;100.00;64613.53;5052550;28;45556;-80
2022/04/20 04:34:21;;;;;;;;;66.00;50.50;;;;;-147.47;100.00;64613.53;5052870;28;46205;-80
2022/04/20 04:36:46;;;;;;;;;58.25;46.25;;;;;-147.47;100.00;64613.53;5048082;28;45751;-79
2022/04/20 04:39:17;;;;;;;;;61.75;47.75;;;;;-147.47;100.00;64613.53;5053341;28;45312;-80
2022/04/20 04:41:44;;;;;;;;;61.00;45.75;;;;;-147.47;100.00;64613.53;5055009;28;45496;-80
2022/04/20 04:44:09;;;;;;;;;68.00;51.00;;;;;-147.47;100.00;64613.53;5052288;28;45779;-77
2022/04/20 04:49:19;;;;;;;;;57.75;45.75;;;;;-147.47;100.00;64613.53;5053449;28;45868;-79
2022/04/20 04:51:44;;;;;;;;;58.75;46.25;;;;;-147.47;100.00;64613.53;5052917;28;45714;-81
2022/04/20 04:54:09;;;;;;;;;60.00;47.00;;;;;-147.47;100.00;64613.53;5047741;28;46711;-74
2022/04/20 04:56:35;;;;;;;;;63.00;46.50;;;;;-147.47;100.00;64613.53;5050231;28;45402;-75
2022/04/20 04:59:00;;;;;;;;;59.00;46.00;;;;;-147.47;100.00;64613.53;5045787;28;45691;-74
2022/04/20 05:01:26;;;;;;;;;59.50;47.25;;;;;-147.47;100.00;64613.53;5026807;28;45586;-73
2022/04/20 05:03:55;;;;;;;;;57.75;45.25;;;;;-147.47;100.00;64613.53;5042888;28;45663;-80
2022/04/20 05:06:20;;;;;;;;;55.25;44.00;;;;;-147.47;100.00;64613.53;5047963;28;45762;-79
2022/04/20 05:08:46;;;;;;;;;55.00;44.75;;;;;-147.47;100.00;64613.53;5052494;28;45618;-80
2022/04/20 05:11:12;;;;;;;;;58.50;46.50;;;;;-147.47;100.00;64613.53;5044758;28;45770;-80
2022/04/20 05:13:37;;;;;;;;;61.25;45.50;;;;;-147.47;100.00;64613.53;5026173;28;46949;-79
2022/04/20 05:16:02;;;;;;;;;62.25;48.75;;;;;-147.47;100.00;64613.53;5044706;28;45750;-74
2022/04/20 05:18:31;;;;;;;;;60.50;47.50;;;;;-147.47;100.00;64613.53;5041103;28;45514;-75
2022/04/20 05:20:56;;;;;;;;;62.00;48.00;;;;;-147.47;100.00;64613.53;5045294;28;45406;-76
2022/04/20 05:23:22;;;;;;;;;53.75;43.75;;;;;-147.47;100.00;64613.53;5026267;28;47178;-76
2022/04/20 05:25:48;;;;;;;;;55.00;45.75;;;;;-147.47;100.00;64613.53;5043636;28;45439;-74
2022/04/20 05:28:13;;;;;;;;;57.75;45.50;;;;;-147.47;100.00;64613.53;5046224;28;45837;-77
2022/04/20 05:30:42;;;;;;;;;60.00;47.50;;;;;-147.47;100.00;64613.53;5045900;28;45668;-78
2022/04/20 05:33:08;;;;;;;;;60.25;45.25;;;;;-147.47;100.00;64613.53;5049418;28;45525;-77
2022/04/20 05:35:48;;;;;;;;;57.50;44.25;;;;;-147.47;100.00;64613.53;5193946;22;45357;-81
2022/04/20 05:43:46;;;;;;;;;56.50;47.00;;;;;-147.47;100.00;64613.53;5053209;28;45819;-80
2022/04/20 05:46:14;;;;;;;;;63.25;49.25;;;;;-147.47;100.00;64613.53;5044329;28;45856;-78
2022/04/20 05:48:39;;;;;;;;;68.25;50.75;;;;;-147.47;100.00;64613.53;5048133;28;45312;-80
2022/04/20 05:51:07;;;;;;;;;69.25;52.25;;;;;-147.47;100.00;64613.53;5042899;28;45744;-79
2022/04/20 05:53:32;;;;;;;;;61.75;48.50;;;;;-147.47;100.00;64613.53;5036785;28;47868;-80
2022/04/20 05:55:59;;;;;;;;;62.50;48.25;;;;;-147.47;100.00;64613.53;5043900;28;45844;-85
2022/04/20 05:58:24;;;;;;;;;62.00;50.50;;;;;-147.47;100.00;64613.53;5055525;28;45901;-82
2022/04/20 06:00:58;;;;;;;;;59.50;47.75;;;;;-147.47;100.00;64613.53;5034570;28;46096;-82
2022/04/20 06:03:27;;;;;;;;;53.75;43.00;;;;;-147.47;100.00;64613.53;5037110;28;45795;-79
2022/04/20 06:05:53;;;;;;;;;62.75;47.00;;;;;-147.47;100.00;64613.53;5044630;28;46181;-83
2022/04/20 06:08:32;;;;;;;;;54.50;43.50;;;;;-147.47;100.00;64613.53;5047483;28;45882;-82
2022/04/20 06:10:58;;;;;;;;;56.00;43.25;;;;;-147.47;100.00;64613.53;5043729;28;46015;-79
2022/04/20 06:13:24;;;;;;;;;60.75;46.50;;;;;-147.47;100.00;64613.53;5046523;28;45896;-81
2022/04/20 06:15:51;;;;;;;;;56.00;43.75;;;;;-147.47;100.00;64613.53;5032232;28;45904;-81
2022/04/20 06:18:16;;;;;;;;;55.75;44.75;;;;;-147.47;100.00;64613.53;5046749;28;45885;-80
2022/04/20 06:20:45;;;;;;;;;61.67;45.67;;;;;-147.47;100.00;64613.53;5026064;28;46928;-80
2022/04/20 06:24:07;;;;;;;;;55.33;41.33;;;;;-147.47;100.00;64613.53;5038484;28;46297;-83
2022/04/20 06:26:34;;;;;;;;;54.33;41.33;;;;;-147.47;100.00;64613.53;5049754;28;45975;-79
2022/04/20 06:32:07;;;;;;;;;49.00;39.67;;;;;-147.47;100.00;64613.53;5034595;28;46023;-77
2022/04/20 06:34:33;;;;;;;;;50.33;42.00;;;;;-147.47;100.00;64613.53;5045704;28;45918;-81
2022/04/20 06:37:13;;;;;;;;;53.67;41.67;;;;;-147.47;100.00;64613.53;5023997;28;45595;-82
2022/04/20 06:39:56;;;;;;;;;54.00;40.67;;;;;-147.47;100.00;64613.53;5034751;28;45477;-83
2022/04/20 06:42:23;;;;;;;;;50.33;37.67;;;;;-147.47;100.00;64613.53;5061059;28;45573;-83
2022/04/20 06:44:51;;;;;;;;;54.00;40.67;;;;;-147.47;100.00;64613.53;5050964;28;45425;-83
2022/04/20 06:47:20;;;;;;;;;50.33;37.67;;;;;-147.47;100.00;64613.53;5054250;28;45823;-80
2022/04/20 06:49:46;;;;;;;;;48.67;39.67;;;;;-147.47;100.00;64613.53;5031471;28;46007;-81
2022/04/20 07:00:32;;;;;;;;;52.00;42.33;;;;;-147.47;100.00;64613.53;5051178;28;45528;-81
2022/04/20 07:03:02;;;;;;;;;58.33;44.00;;;;;-147.47;100.00;64613.53;5027949;28;45726;-81
2022/04/20 07:05:42;;;;;;;;;52.33;41.33;;;;;-147.47;100.00;64613.53;5053255;28;46045;-81
2022/04/20 07:08:27;;;;;;;;;;;;;;;;;;;;;
2022/04/20 07:10:54;;;;;;;;;50.33;39.67;;;;;-147.47;100.00;64613.53;5026697;28;69542;-86
2022/04/20 07:13:20;;;;;;;;;46.33;34.33;;;;;-147.47;100.00;64613.53;5031357;28;46173;-82
2022/04/20 07:15:46;;;;;;;;;41.33;37.33;;;;;-147.47;100.00;64613.53;5035902;28;46419;-81
2022/04/20 07:18:12;;;;;;;;;49.00;38.33;;;;;-147.47;100.00;64613.53;5028630;28;45738;-79
2022/04/20 07:20:42;;;;;;;;;39.00;34.33;;;;;-147.47;100.00;64613.53;5031016;28;45887;-82
2022/04/20 07:23:10;;;;;;;;;37.00;32.33;;;;;-147.47;100.00;64613.53;5034265;28;47129;-82
2022/04/20 07:25:36;;;;;;;;;43.67;36.33;;;;;-147.47;100.00;64613.53;5025533;28;46867;-81
2022/04/20 07:28:09;;;;;;;;;43.33;35.00;;;;;-147.47;100.00;64613.53;5027817;28;45305;-83
2022/04/20 07:30:36;;;;;;;;;37.67;32.67;;;;;-147.47;100.00;64613.53;5044909;28;45486;-80
2022/04/20 07:33:02;;;;;;;;;46.33;38.33;;;;;-147.47;100.00;64613.53;5052205;28;45635;-82
2022/04/20 07:35:29;;;;;;;;;40.33;34.00;;;;;-147.47;100.00;64613.53;5026932;28;47587;-79
2022/04/20 07:37:55;;;;;;;;;41.00;34.33;;;;;-147.47;100.00;64613.53;5046406;28;44895;-79
2022/04/20 07:40:20;;;;;;;;;45.33;38.00;;;;;-147.47;100.00;64613.53;5037530;28;45449;-81
2022/04/20 07:42:46;;;;;;;;;41.67;36.33;;;;;-147.47;100.00;64613.53;5010536;28;46012;-80
2022/04/20 07:45:12;;;;;;;;;45.33;34.33;;;;;-147.47;100.00;64613.53;5053841;28;45701;-79
2022/04/20 07:47:37;;;;;;;;;39.33;35.00;;;;;-147.47;100.00;64613.53;5018973;28;45697;-80
2022/04/20 07:50:19;;;;;;;;;43.33;35.33;;;;;-147.47;100.00;64613.53;5033965;28;45901;-80
2022/04/20 07:52:51;;;;;;;;;44.33;35.00;;;;;-147.47;100.00;64613.53;5015212;28;45957;-81
2022/04/20 07:55:27;;;;;;;;;38.67;34.00;;;;;-147.47;100.00;64613.53;5044922;28;45772;-82
2022/04/20 07:57:58;;;;;;;;;40.00;34.67;;;;;-147.47;100.00;64613.53;5036644;28;45558;-82
2022/04/20 08:00:24;;;;;;;;;42.00;34.67;;;;;-147.47;100.00;64613.53;5054726;28;45355;-81
2022/04/20 08:02:51;;;;;;;;;36.00;33.67;;;;;-147.47;100.00;64613.53;5054808;28;46094;-80
2022/04/20 08:05:19;;;;;;;;;33.67;30.00;;;;;-147.47;100.00;64613.53;5036729;28;45809;-82
2022/04/20 08:07:45;;;;;;;;;42.33;33.67;;;;;-147.47;100.00;64613.53;5057354;28;45583;-81
2022/04/20 08:10:12;;;;;;;;;37.00;33.00;;;;;-147.47;100.00;64613.53;5057548;28;45754;-81
2022/04/20 08:12:43;;;;;;;;;35.00;30.00;;;;;-147.47;100.00;64613.53;5057170;28;45640;-82
2022/04/20 08:15:10;;;;;;;;;32.33;26.67;;;;;-147.47;100.00;64613.53;5037822;28;48015;-80
2022/04/20 08:17:36;;;;;;;;;34.33;29.00;;;;;-147.47;100.00;64613.53;5057314;28;45685;-83
2022/04/20 08:20:07;;;;;;;;;26.00;26.00;;;;;-147.47;100.00;64613.53;5058800;28;45705;-80
2022/04/20 08:22:33;;;;;;;;;28.67;25.00;;;;;-147.47;100.00;64613.53;5037805;28;46175;-80
2022/04/20 08:25:02;;;;;;;;;29.67;26.00;;;;;-147.47;100.00;64613.53;5035715;28;47266;-80
2022/04/20 08:27:28;;;;;;;;;27.00;27.00;;;;;-147.47;100.00;64613.53;5035028;28;45504;-80
2022/04/20 08:29:53;;;;;;;;;24.33;20.67;;;;;-147.47;100.00;64613.53;5035597;28;45546;-81
2022/04/20 08:32:19;;;;;;;;;25.33;25.00;;;;;-147.47;100.00;64613.53;5034869;28;45940;-80
2022/04/20 08:34:48;;;;;;;;;25.33;24.00;;;;;-147.47;100.00;64613.53;5023089;28;47479;-80
2022/04/20 08:37:23;;;;;;;;;30.67;24.33;;;;;-147.47;100.00;64613.53;5038865;28;45693;-81
2022/04/20 08:39:49;;;;;;;;;29.67;23.67;;;;;-147.47;100.00;64613.53;5057165;28;45519;-81
2022/04/20 08:42:19;;;;;;;;;25.33;23.00;;;;;-147.47;100.00;64613.53;5038156;28;45759;-83
2022/04/20 08:44:50;;;;;;;;;27.67;26.67;;;;;-147.47;100.00;64613.53;5058475;28;45830;-82
2022/04/20 08:47:23;;;;;;;;;28.67;25.00;;;;;-147.47;100.00;64613.53;5053031;28;45692;-85
2022/04/20 08:49:50;;;;;;;;;26.00;22.67;;;;;-147.47;100.00;64613.53;5063837;28;45490;-82
2022/04/20 08:52:38;;;;;;;;;26.33;24.67;;;;;-147.47;100.00;64613.53;5036352;28;47173;-84
2022/04/20 08:55:16;;;;;;;;;23.33;22.33;;;;;-147.47;100.00;64613.53;5038542;28;45799;-83
2022/04/20 08:57:46;;;;;;;;;28.00;24.33;;;;;-147.47;100.00;64613.53;5039467;28;45529;-85
2022/04/20 09:00:21;;;;;;;;;25.33;20.67;;;;;-147.47;100.00;64613.53;5058205;28;45423;-83
2022/04/20 09:02:55;;;;;;;;;23.33;19.00;;;;;-147.47;100.00;64613.53;5037731;28;45433;-83
2022/04/20 09:05:25;;;;;;;;;20.33;20.33;;;;;-147.47;100.00;64613.53;5049645;28;45445;-82
2022/04/20 09:07:52;;;;;;;;;20.00;20.00;;;;;-147.47;100.00;64613.53;5042858;28;45777;-82
2022/04/20 09:10:18;;;;;;;;;17.00;15.67;;;;;-147.47;100.00;64613.53;5052111;28;45453;-84
2022/04/20 09:12:45;;;;;;;;;22.67;18.00;;;;;-147.47;100.00;64613.53;5049100;28;46411;-82
2022/04/20 09:15:16;;;;;;;;;20.33;20.33;;;;;-147.47;100.00;64613.53;5050263;28;45596;-82
2022/04/20 09:17:46;;;;;;;;;21.67;19.00;;;;;-147.47;100.00;64613.53;5034501;28;45713;-82
2022/04/20 09:20:17;;;;;;;;;22.00;16.67;;;;;-147.47;100.00;64613.53;5049447;28;45654;-81
2022/04/20 09:23:03;;;;;;;;;20.67;15.67;;;;;-147.47;100.00;64613.53;5047157;28;45893;-84
2022/04/20 09:25:57;;;;;;;;;13.67;13.67;;;;;-147.47;100.00;64613.53;5025787;28;47366;-81
2022/04/20 09:28:24;;;;;;;;;16.33;14.00;;;;;-147.47;100.00;64613.53;5027030;28;45966;-83
2022/04/20 09:30:51;;;;;;;;;17.67;16.33;;;;;-147.47;100.00;64613.53;5051264;28;45500;-81
2022/04/20 09:33:19;;;;;;;;;19.67;16.00;;;;;-147.47;100.00;64613.53;5024264;28;47112;-84
2022/04/20 09:36:02;;;;;;;;;23.00;18.33;;;;;-147.47;100.00;64613.53;5031917;28;47173;-83
2022/04/20 09:38:31;;;;;;;;;20.33;17.67;;;;;-147.47;100.00;64613.53;5028231;28;45565;-83
2022/04/20 09:41:13;;;;;;;;;17.33;14.67;;;;;-147.47;100.00;64613.53;5049275;28;45422;-80
2022/04/20 09:43:39;;;;;;;;;22.00;17.00;;;;;-147.47;100.00;64613.53;5041412;28;47094;-80
2022/04/20 09:49:10;;;;;;;;;15.67;14.33;;;;;-147.47;100.00;64613.53;5041844;28;45881;-78
2022/04/20 09:51:41;;;;;;;;;18.33;17.00;;;;;-147.47;100.00;64613.53;5047484;28;44892;-82
2022/04/20 09:54:29;;;;;;;;;15.67;15.67;;;;;-147.47;100.00;64613.53;5023545;28;45939;-80
2022/04/20 09:57:12;;;;;;;;;18.67;17.00;;;;;-147.47;100.00;64613.53;5030841;28;46536;-84
2022/04/20 10:00:04;;;;;;;;;15.00;14.00;;;;;-147.47;100.00;64613.53;5047507;28;45394;-81
2022/04/20 10:02:36;;;;;;;;;14.00;14.00;;;;;-147.47;100.00;64613.53;5041876;28;45642;-83
2022/04/20 10:05:02;;;;;;;;;16.67;15.67;;;;;-147.47;100.00;64613.53;5041715;28;45947;-82
2022/04/20 10:07:28;;;;;;;;;17.00;15.33;;;;;-147.47;100.00;64613.53;5032213;28;46315;-81
2022/04/20 10:09:54;;;;;;;;;12.00;11.33;;;;;-147.47;100.00;64613.53;5045568;28;45536;-79
2022/04/20 10:12:21;;;;;;;;;14.33;13.33;;;;;-147.47;100.00;64613.53;5049353;28;46141;-82
2022/04/20 10:17:45;;;;;;;;;13.33;12.67;;;;;-147.47;100.00;64613.53;5044626;28;45837;-82
2022/04/20 10:20:13;;;;;;;;;12.00;11.67;;;;;-147.47;100.00;64613.53;5021056;28;46060;-81
2022/04/20 10:22:41;;;;;;;;;12.00;11.00;;;;;-147.47;100.00;64613.53;5048131;28;45679;-80
2022/04/20 10:25:08;;;;;;;;;8.00;8.00;;;;;-147.47;100.00;64613.53;5034056;28;45952;-83
2022/04/20 10:28:04;;;;;;;;;10.67;9.00;;;;;-147.47;100.00;64613.53;5027186;28;47564;-82
2022/04/20 10:30:30;;;;;;;;;13.33;10.33;;;;;-147.47;100.00;64613.53;5027768;28;46109;-83
2022/04/20 10:33:05;;;;;;;;;12.33;11.33;;;;;-147.47;100.00;64613.53;5042456;28;45848;-83
2022/04/20 10:35:52;;;;;;;;;8.33;8.33;;;;;-147.47;100.00;64613.53;5029072;28;47445;-81
2022/04/20 10:38:22;;;;;;;;;11.00;9.33;;;;;-147.47;100.00;64613.53;5038550;28;45506;-81
2022/04/20 10:41:06;;;;;;;;;8.33;8.33;;;;;-147.47;100.00;64613.53;5046536;28;45500;-80
2022/04/20 10:43:38;;;;;;;;;7.33;7.33;;;;;-147.47;100.00;64613.53;5042943;28;45488;-81
2022/04/20 10:46:18;;;;;;;;;7.67;7.67;;;;;-147.47;100.00;64613.53;5039878;28;45624;-82
2022/04/20 10:48:48;;;;;;;;;10.00;10.00;;;;;-147.47;100.00;64613.53;5052865;28;45699;-81
2022/04/20 10:51:24;;;;;;;;;8.00;8.00;;;;;-147.47;100.00;64613.53;5042285;28;45853;-83
2022/04/20 10:55:01;;;;;;;;;7.33;6.33;;;;;-147.47;100.00;64613.53;5030967;28;45588;-83
2022/04/20 10:57:45;;;;;;;;;4.67;4.67;;;;;-147.47;100.00;64613.53;5036918;28;45470;-83
2022/04/20 11:00:25;;;;;;;;;8.67;7.33;;;;;-147.47;100.00;64613.53;5008865;28;45750;-85
2022/04/20 11:03:01;;;;;;;;;6.33;6.33;;;;;-147.47;100.00;64613.53;5020377;28;45986;-84
2022/04/20 11:05:26;;;;;;;;;8.00;6.33;;;;;-147.47;100.00;64613.53;5033330;28;45938;-83
2022/04/20 11:08:26;;;;;;;;;9.33;8.00;;;;;-147.47;100.00;64613.53;5040098;28;46197;-84
2022/04/20 11:18:38;;;;;;;;;7.67;6.67;;;;;-147.47;100.00;64613.53;5038220;28;45975;-86
2022/04/20 11:19:09;;;;;;;;;5.33;4.67;;;;;-147.47;100.00;64613.53;5060109;28;45652;-85
2022/04/20 11:21:51;;;;;;;;;7.67;6.67;;;;;-147.47;100.00;64613.53;5029947;28;47364;-87
2022/04/20 11:24:26;;;;;;;;;6.33;6.33;;;;;-147.47;100.00;64613.53;5056362;28;45469;-85
2022/04/20 11:26:55;;;;;;;;;5.00;3.67;;;;;-147.47;100.00;64613.53;5045272;28;45794;-79
2022/04/20 11:29:24;;;;;;;;;5.67;5.00;;;;;-147.47;100.00;64613.53;5040775;28;45703;-84
2022/04/20 11:31:58;;;;;;;;;3.67;3.67;;;;;-147.47;100.00;64613.53;5031969;28;47762;-79
2022/04/20 11:34:46;;;;;;;;;6.33;4.00;;;;;-147.47;100.00;64613.53;5040753;28;45790;-80
2022/04/20 11:38:11;;;;;;;;;3.00;1.33;;;;;-147.47;100.00;64613.53;5042140;28;45933;-80
2022/04/20 11:41:19;;;;;;;;;5.67;4.67;;;;;-147.47;100.00;64613.53;5048616;28;45745;-80
2022/04/20 11:44:46;;;;;;;;;5.00;5.00;;;;;-147.47;100.00;64613.53;5016471;28;46269;-79
2022/04/20 11:48:15;;;;;;;;;4.00;3.00;;;;;-147.47;100.00;64613.53;5018164;28;45512;-82
2022/04/20 11:51:31;;;;;;;;;4.00;3.00;;;;;-147.47;100.00;64613.53;5029894;28;46592;-81
2022/04/20 11:54:34;;;;;;;;;3.00;3.00;;;;;-147.47;100.00;64613.53;5041613;28;45498;-84
2022/04/20 11:57:00;;;;;;;;;5.33;5.00;;;;;-147.47;100.00;64613.53;5035402;28;47140;-83
2022/04/20 11:59:46;;;;;;;;;5.33;5.33;;;;;-147.47;100.00;64613.53;5058302;28;45672;-85
2022/04/20 12:02:13;;;;;;;;;4.00;3.00;;;;;-147.47;100.00;64613.53;5048695;28;45509;-75